KLFI/LFI METAR and TAF weather

Enter ICAO airport designator
Station Type Date Time Source
KLFI METAR 2020/04/05 20:56 UTC NOAA

KLFI 052056Z AUTO 12010KT 9SM CLR 17/08 A3004 RMK AO2 SLP179 T01710080 57015 $


Station Type Date Time Source
KLFI Decoded METAR 2020/04/05 20:56 UTC NOAA

Langley Air Force Base, VA, United States (KLFI) 37-05N 076-21W 6M
Apr 05, 2020 - 04:56 PM EDT / 2020.04.05 2056 UTC
Wind: from the ESE (120 degrees) at 12 MPH (10 KT):0
Visibility: 9 mile(s):0
Sky conditions: clear
Temperature: 62.8 F (17.1 C)
Dew Point: 46.4 F (8.0 C)
Relative Humidity: 55%
Pressure (altimeter): 30.04 in. Hg (1017 hPa)
Pressure tendency: 0.04 inches (1.5 hPa) lower than three hours ago
ob: KLFI 052056Z AUTO 12010KT 9SM CLR 17/08 A3004 RMK AO2 SLP179 T01710080 57015
cycle: 21

Station Type Date Time Source
KLFI TAF 2020/04/03 17:26 UTC NOAA

TAF
AMD KLFI 031735Z 0317/0415 29025G35KT 9999 SKC 530009 QNH2978INS
BECMG 0317/0318 33015G25KT 9999 BKN050 510009 QNH2976INS
BECMG 0413/0414 35015G20KT 9999 OVC020 QNH2996INS TX18/0319Z TN09/0409Z LAST NO
AMDS AFT 0317 NEXT 0609

Example: see airport list